LUKK/KIV METAR and TAF weather

Enter ICAO airport designator
Station Type Date Time Source
LUKK METAR 2021/04/17 03:00 UTC NOAA

LUKK 170300Z 34003KT 280V030 CAVOK 01/M00 Q1018 R08/CLRD// NOSIG


Station Type Date Time Source
LUKK Decoded METAR 2021/04/17 03:00 UTC NOAA

Chisinau International Airport, Moldova (LUKK) 46-55-40N 028-55-51E
Apr 16, 2021 - 11:00 PM EDT / 2021.04.17 0300 UTC
Wind: from the NNW (340 degrees) at 3 MPH (3 KT) (direction variable):0
Visibility: greater than 7 mile(s):0
Temperature: 33 F (1 C)
Dew Point: 32 F (0 C)
Relative Humidity: 93%
Pressure (altimeter): 30.06 in. Hg (1018 hPa)
ob: LUKK 170300Z 34003KT 280V030 CAVOK 01/M00 Q1018 R08/CLRD// NOSIG
cycle: 3

Station Type Date Time Source
LUKK TAF 2021/04/16 18:20 UTC NOAA

TAF LUKK 161720Z 1618/1718 VRB02KT CAVOK
TEMPO 1701/1705 4100 BR
BECMG 1706/1708 18008KT

Example: see airport list